sensor_id;sensor_type;location;lat;lon;timestamp;P1;durP1;ratioP1;P2;durP2;ratioP2
57341;SDS011;43175;51.002;18.316;2024-02-26T00:00:16;24.20;;;10.60;;
57341;SDS011;43175;51.002;18.316;2024-02-26T00:02:42;19.70;;;9.10;;
57341;SDS011;43175;51.002;18.316;2024-02-26T00:05:07;21.90;;;9.40;;
57341;SDS011;43175;51.002;18.316;2024-02-26T00:07:33;23.00;;;9.60;;
57341;SDS011;43175;51.002;18.316;2024-02-26T00:09:59;21.70;;;10.20;;
57341;SDS011;43175;51.002;18.316;2024-02-26T00:12:24;22.00;;;10.20;;
57341;SDS011;43175;51.002;18.316;2024-02-26T00:14:49;22.90;;;10.80;;
57341;SDS011;43175;51.002;18.316;2024-02-26T00:17:15;21.50;;;10.70;;
57341;SDS011;43175;51.002;18.316;2024-02-26T00:19:41;22.50;;;10.70;;
57341;SDS011;43175;51.002;18.316;2024-02-26T00:22:06;21.40;;;10.60;;
57341;SDS011;43175;51.002;18.316;2024-02-26T00:24:32;23.70;;;10.60;;
57341;SDS011;43175;51.002;18.316;2024-02-26T00:26:58;22.20;;;10.20;;
57341;SDS011;43175;51.002;18.316;2024-02-26T00:29:24;22.80;;;10.40;;
57341;SDS011;43175;51.002;18.316;2024-02-26T00:31:50;20.00;;;9.80;;
57341;SDS011;43175;51.002;18.316;2024-02-26T00:34:16;20.50;;;9.70;;
57341;SDS011;43175;51.002;18.316;2024-02-26T00:36:41;22.50;;;10.10;;
57341;SDS011;43175;51.002;18.316;2024-02-26T00:39:07;21.30;;;9.50;;
57341;SDS011;43175;51.002;18.316;2024-02-26T00:41:32;18.70;;;8.70;;
57341;SDS011;43175;51.002;18.316;2024-02-26T00:43:57;19.40;;;9.20;;
57341;SDS011;43175;51.002;18.316;2024-02-26T00:46:23;20.20;;;9.40;;
57341;SDS011;43175;51.002;18.316;2024-02-26T00:48:48;20.50;;;8.50;;
57341;SDS011;43175;51.002;18.316;2024-02-26T00:51:13;19.80;;;8.70;;
57341;SDS011;43175;51.002;18.316;2024-02-26T00:53:40;19.40;;;9.00;;
57341;SDS011;43175;51.002;18.316;2024-02-26T00:56:05;21.10;;;9.00;;
57341;SDS011;43175;51.002;18.316;2024-02-26T00:58:31;21.00;;;9.30;;
57341;SDS011;43175;51.002;18.316;2024-02-26T01:00:57;20.20;;;9.10;;
57341;SDS011;43175;51.002;18.316;2024-02-26T01:03:23;21.80;;;9.60;;
57341;SDS011;43175;51.002;18.316;2024-02-26T01:05:48;22.20;;;9.60;;
57341;SDS011;43175;51.002;18.316;2024-02-26T01:08:14;19.30;;;9.40;;
57341;SDS011;43175;51.002;18.316;2024-02-26T01:10:39;18.80;;;9.10;;
57341;SDS011;43175;51.002;18.316;2024-02-26T01:13:05;20.20;;;10.10;;
57341;SDS011;43175;51.002;18.316;2024-02-26T01:15:30;22.80;;;9.90;;
57341;SDS011;43175;51.002;18.316;2024-02-26T01:17:56;19.90;;;9.60;;
57341;SDS011;43175;51.002;18.316;2024-02-26T01:20:21;20.80;;;9.60;;
57341;SDS011;43175;51.002;18.316;2024-02-26T01:22:47;19.00;;;10.10;;
57341;SDS011;43175;51.002;18.316;2024-02-26T01:25:12;22.80;;;9.70;;
57341;SDS011;43175;51.002;18.316;2024-02-26T01:27:38;20.10;;;10.10;;
57341;SDS011;43175;51.002;18.316;2024-02-26T01:30:04;20.50;;;10.60;;
57341;SDS011;43175;51.002;18.316;2024-02-26T01:32:30;22.10;;;10.80;;
57341;SDS011;43175;51.002;18.316;2024-02-26T01:34:56;23.00;;;11.00;;
57341;SDS011;43175;51.002;18.316;2024-02-26T01:37:21;22.10;;;11.30;;
57341;SDS011;43175;51.002;18.316;2024-02-26T01:39:47;23.70;;;11.30;;
57341;SDS011;43175;51.002;18.316;2024-02-26T01:42:12;22.50;;;11.30;;
57341;SDS011;43175;51.002;18.316;2024-02-26T01:44:38;23.80;;;11.90;;
57341;SDS011;43175;51.002;18.316;2024-02-26T01:47:03;22.70;;;11.50;;
57341;SDS011;43175;51.002;18.316;2024-02-26T01:49:29;24.70;;;12.50;;
57341;SDS011;43175;51.002;18.316;2024-02-26T01:51:55;25.00;;;11.80;;
57341;SDS011;43175;51.002;18.316;2024-02-26T01:54:20;21.90;;;11.60;;
57341;SDS011;43175;51.002;18.316;2024-02-26T01:56:46;23.30;;;12.20;;
57341;SDS011;43175;51.002;18.316;2024-02-26T01:59:12;22.20;;;11.90;;
57341;SDS011;43175;51.002;18.316;2024-02-26T02:01:38;23.40;;;12.60;;
57341;SDS011;43175;51.002;18.316;2024-02-26T02:04:06;28.00;;;12.10;;
57341;SDS011;43175;51.002;18.316;2024-02-26T02:06:32;22.70;;;12.30;;
57341;SDS011;43175;51.002;18.316;2024-02-26T02:08:58;25.60;;;12.10;;
57341;SDS011;43175;51.002;18.316;2024-02-26T02:11:26;24.10;;;12.20;;
57341;SDS011;43175;51.002;18.316;2024-02-26T02:13:51;23.90;;;12.20;;
57341;SDS011;43175;51.002;18.316;2024-02-26T02:16:16;22.80;;;12.10;;
57341;SDS011;43175;51.002;18.316;2024-02-26T02:18:42;23.30;;;11.80;;
57341;SDS011;43175;51.002;18.316;2024-02-26T02:21:07;23.30;;;12.20;;
57341;SDS011;43175;51.002;18.316;2024-02-26T02:23:33;23.80;;;12.10;;
57341;SDS011;43175;51.002;18.316;2024-02-26T02:25:58;23.30;;;12.40;;
57341;SDS011;43175;51.002;18.316;2024-02-26T02:28:25;23.40;;;12.10;;
57341;SDS011;43175;51.002;18.316;2024-02-26T02:30:50;23.90;;;12.70;;
57341;SDS011;43175;51.002;18.316;2024-02-26T02:33:16;24.70;;;12.20;;
57341;SDS011;43175;51.002;18.316;2024-02-26T02:35:41;24.20;;;12.30;;
57341;SDS011;43175;51.002;18.316;2024-02-26T02:38:07;22.50;;;12.40;;
57341;SDS011;43175;51.002;18.316;2024-02-26T02:40:32;23.30;;;12.70;;
57341;SDS011;43175;51.002;18.316;2024-02-26T02:42:58;23.40;;;12.40;;
57341;SDS011;43175;51.002;18.316;2024-02-26T02:45:24;23.50;;;12.90;;
57341;SDS011;43175;51.002;18.316;2024-02-26T02:47:49;27.70;;;13.40;;
57341;SDS011;43175;51.002;18.316;2024-02-26T02:50:14;29.20;;;13.60;;
57341;SDS011;43175;51.002;18.316;2024-02-26T02:52:40;24.70;;;13.40;;
57341;SDS011;43175;51.002;18.316;2024-02-26T02:55:05;25.10;;;13.80;;
57341;SDS011;43175;51.002;18.316;2024-02-26T02:57:31;24.90;;;13.50;;
57341;SDS011;43175;51.002;18.316;2024-02-26T02:59:57;23.00;;;12.70;;
57341;SDS011;43175;51.002;18.316;2024-02-26T03:02:23;27.20;;;13.20;;
57341;SDS011;43175;51.002;18.316;2024-02-26T03:04:50;24.50;;;13.30;;
57341;SDS011;43175;51.002;18.316;2024-02-26T03:07:16;25.80;;;13.30;;
57341;SDS011;43175;51.002;18.316;2024-02-26T03:09:41;24.60;;;13.00;;
57341;SDS011;43175;51.002;18.316;2024-02-26T03:12:07;25.10;;;12.80;;
57341;SDS011;43175;51.002;18.316;2024-02-26T03:14:32;24.00;;;13.30;;
57341;SDS011;43175;51.002;18.316;2024-02-26T03:16:58;27.00;;;14.00;;
57341;SDS011;43175;51.002;18.316;2024-02-26T03:19:23;24.60;;;13.40;;
57341;SDS011;43175;51.002;18.316;2024-02-26T03:21:49;24.90;;;13.60;;
57341;SDS011;43175;51.002;18.316;2024-02-26T03:24:14;24.20;;;13.20;;
57341;SDS011;43175;51.002;18.316;2024-02-26T03:26:40;26.60;;;13.00;;
57341;SDS011;43175;51.002;18.316;2024-02-26T03:29:05;27.10;;;14.10;;
57341;SDS011;43175;51.002;18.316;2024-02-26T03:31:31;26.20;;;13.50;;
57341;SDS011;43175;51.002;18.316;2024-02-26T03:33:57;28.70;;;14.70;;
57341;SDS011;43175;51.002;18.316;2024-02-26T03:36:22;28.60;;;14.80;;
57341;SDS011;43175;51.002;18.316;2024-02-26T03:38:48;30.40;;;16.00;;
57341;SDS011;43175;51.002;18.316;2024-02-26T03:41:13;32.70;;;16.90;;
57341;SDS011;43175;51.002;18.316;2024-02-26T03:43:39;33.50;;;17.90;;
57341;SDS011;43175;51.002;18.316;2024-02-26T03:46:08;32.40;;;17.60;;
57341;SDS011;43175;51.002;18.316;2024-02-26T03:48:35;28.40;;;15.50;;
57341;SDS011;43175;51.002;18.316;2024-02-26T03:51:00;27.10;;;14.90;;
57341;SDS011;43175;51.002;18.316;2024-02-26T03:53:26;26.80;;;14.40;;
57341;SDS011;43175;51.002;18.316;2024-02-26T03:55:51;25.70;;;14.30;;
57341;SDS011;43175;51.002;18.316;2024-02-26T03:58:18;27.50;;;13.90;;
57341;SDS011;43175;51.002;18.316;2024-02-26T04:00:43;32.00;;;14.60;;
57341;SDS011;43175;51.002;18.316;2024-02-26T04:03:09;27.40;;;14.30;;
57341;SDS011;43175;51.002;18.316;2024-02-26T04:05:34;27.10;;;14.20;;
57341;SDS011;43175;51.002;18.316;2024-02-26T04:08:00;28.60;;;13.30;;
57341;SDS011;43175;51.002;18.316;2024-02-26T04:10:25;26.40;;;14.40;;
57341;SDS011;43175;51.002;18.316;2024-02-26T04:12:50;28.30;;;15.00;;
57341;SDS011;43175;51.002;18.316;2024-02-26T04:15:16;29.00;;;15.50;;
57341;SDS011;43175;51.002;18.316;2024-02-26T04:17:42;28.50;;;15.10;;
57341;SDS011;43175;51.002;18.316;2024-02-26T04:20:08;26.50;;;15.00;;
57341;SDS011;43175;51.002;18.316;2024-02-26T04:22:35;26.40;;;13.70;;
57341;SDS011;43175;51.002;18.316;2024-02-26T04:25:00;26.30;;;13.60;;
57341;SDS011;43175;51.002;18.316;2024-02-26T04:27:25;25.10;;;13.60;;
57341;SDS011;43175;51.002;18.316;2024-02-26T04:29:51;27.40;;;13.70;;
57341;SDS011;43175;51.002;18.316;2024-02-26T04:32:16;25.60;;;13.10;;
57341;SDS011;43175;51.002;18.316;2024-02-26T04:34:42;24.80;;;13.50;;
57341;SDS011;43175;51.002;18.316;2024-02-26T04:37:07;27.50;;;13.90;;
57341;SDS011;43175;51.002;18.316;2024-02-26T04:39:33;26.00;;;12.60;;
57341;SDS011;43175;51.002;18.316;2024-02-26T04:41:58;26.20;;;12.30;;
57341;SDS011;43175;51.002;18.316;2024-02-26T04:44:23;23.10;;;11.50;;
57341;SDS011;43175;51.002;18.316;2024-02-26T04:46:49;22.10;;;11.40;;
57341;SDS011;43175;51.002;18.316;2024-02-26T04:49:14;21.90;;;11.10;;
57341;SDS011;43175;51.002;18.316;2024-02-26T04:51:40;21.20;;;11.10;;
57341;SDS011;43175;51.002;18.316;2024-02-26T04:54:05;20.30;;;11.00;;
57341;SDS011;43175;51.002;18.316;2024-02-26T04:56:31;20.80;;;10.70;;
57341;SDS011;43175;51.002;18.316;2024-02-26T04:58:56;22.80;;;10.30;;
57341;SDS011;43175;51.002;18.316;2024-02-26T05:01:22;20.50;;;10.20;;
57341;SDS011;43175;51.002;18.316;2024-02-26T05:03:47;19.10;;;10.20;;
57341;SDS011;43175;51.002;18.316;2024-02-26T05:06:13;19.90;;;10.30;;
57341;SDS011;43175;51.002;18.316;2024-02-26T05:08:38;19.30;;;10.20;;
57341;SDS011;43175;51.002;18.316;2024-02-26T05:11:04;19.40;;;10.10;;
57341;SDS011;43175;51.002;18.316;2024-02-26T05:13:29;20.80;;;9.90;;
57341;SDS011;43175;51.002;18.316;2024-02-26T05:15:55;19.80;;;10.20;;
57341;SDS011;43175;51.002;18.316;2024-02-26T05:18:21;20.10;;;10.50;;
57341;SDS011;43175;51.002;18.316;2024-02-26T05:20:47;20.10;;;10.30;;
57341;SDS011;43175;51.002;18.316;2024-02-26T05:23:12;21.60;;;10.40;;
57341;SDS011;43175;51.002;18.316;2024-02-26T05:25:38;18.80;;;9.90;;
57341;SDS011;43175;51.002;18.316;2024-02-26T05:28:04;20.00;;;9.90;;
57341;SDS011;43175;51.002;18.316;2024-02-26T05:30:29;20.60;;;9.50;;
57341;SDS011;43175;51.002;18.316;2024-02-26T05:32:54;19.60;;;10.00;;
57341;SDS011;43175;51.002;18.316;2024-02-26T05:35:20;20.10;;;10.30;;
57341;SDS011;43175;51.002;18.316;2024-02-26T05:37:45;19.80;;;9.90;;
57341;SDS011;43175;51.002;18.316;2024-02-26T05:40:11;18.60;;;9.50;;
57341;SDS011;43175;51.002;18.316;2024-02-26T05:42:37;19.60;;;9.30;;
57341;SDS011;43175;51.002;18.316;2024-02-26T05:45:02;19.90;;;9.20;;
57341;SDS011;43175;51.002;18.316;2024-02-26T05:47:34;18.30;;;8.90;;
57341;SDS011;43175;51.002;18.316;2024-02-26T05:50:00;16.70;;;8.40;;
57341;SDS011;43175;51.002;18.316;2024-02-26T05:52:29;17.80;;;8.40;;
57341;SDS011;43175;51.002;18.316;2024-02-26T05:54:55;19.90;;;8.40;;
57341;SDS011;43175;51.002;18.316;2024-02-26T05:57:20;16.00;;;7.90;;
57341;SDS011;43175;51.002;18.316;2024-02-26T05:59:45;17.50;;;8.20;;
57341;SDS011;43175;51.002;18.316;2024-02-26T06:02:11;17.90;;;8.20;;
57341;SDS011;43175;51.002;18.316;2024-02-26T06:04:36;16.30;;;7.70;;
57341;SDS011;43175;51.002;18.316;2024-02-26T06:07:02;15.60;;;7.90;;
57341;SDS011;43175;51.002;18.316;2024-02-26T06:09:27;16.60;;;7.80;;
57341;SDS011;43175;51.002;18.316;2024-02-26T06:11:53;17.40;;;8.20;;
57341;SDS011;43175;51.002;18.316;2024-02-26T06:14:19;16.80;;;8.40;;
57341;SDS011;43175;51.002;18.316;2024-02-26T06:16:45;20.20;;;8.70;;
57341;SDS011;43175;51.002;18.316;2024-02-26T06:19:10;16.00;;;8.50;;
57341;SDS011;43175;51.002;18.316;2024-02-26T06:21:36;16.60;;;8.60;;
57341;SDS011;43175;51.002;18.316;2024-02-26T06:24:01;17.60;;;9.30;;
57341;SDS011;43175;51.002;18.316;2024-02-26T06:26:27;17.20;;;8.90;;
57341;SDS011;43175;51.002;18.316;2024-02-26T06:28:54;16.90;;;8.30;;
57341;SDS011;43175;51.002;18.316;2024-02-26T06:31:21;17.30;;;8.00;;
57341;SDS011;43175;51.002;18.316;2024-02-26T06:33:48;17.00;;;8.60;;
57341;SDS011;43175;51.002;18.316;2024-02-26T06:36:15;19.40;;;9.40;;
57341;SDS011;43175;51.002;18.316;2024-02-26T06:38:40;17.40;;;8.50;;
57341;SDS011;43175;51.002;18.316;2024-02-26T06:41:06;16.70;;;8.40;;
57341;SDS011;43175;51.002;18.316;2024-02-26T06:43:31;15.80;;;8.20;;
57341;SDS011;43175;51.002;18.316;2024-02-26T06:45:57;18.20;;;8.80;;
57341;SDS011;43175;51.002;18.316;2024-02-26T06:48:23;19.20;;;8.80;;
57341;SDS011;43175;51.002;18.316;2024-02-26T06:50:48;19.30;;;8.10;;
57341;SDS011;43175;51.002;18.316;2024-02-26T06:53:14;16.90;;;7.50;;
57341;SDS011;43175;51.002;18.316;2024-02-26T06:55:40;18.20;;;7.50;;
57341;SDS011;43175;51.002;18.316;2024-02-26T06:58:06;16.10;;;7.60;;
57341;SDS011;43175;51.002;18.316;2024-02-26T07:00:31;15.90;;;6.80;;
57341;SDS011;43175;51.002;18.316;2024-02-26T07:02:57;13.90;;;6.30;;
57341;SDS011;43175;51.002;18.316;2024-02-26T07:05:23;13.50;;;6.10;;
57341;SDS011;43175;51.002;18.316;2024-02-26T07:07:49;14.60;;;6.40;;
57341;SDS011;43175;51.002;18.316;2024-02-26T07:10:14;13.60;;;6.40;;
57341;SDS011;43175;51.002;18.316;2024-02-26T07:12:40;13.80;;;6.10;;
57341;SDS011;43175;51.002;18.316;2024-02-26T07:15:06;13.70;;;5.80;;
57341;SDS011;43175;51.002;18.316;2024-02-26T07:17:33;14.50;;;6.00;;
57341;SDS011;43175;51.002;18.316;2024-02-26T07:19:59;11.80;;;5.20;;
57341;SDS011;43175;51.002;18.316;2024-02-26T07:22:25;12.40;;;5.60;;
57341;SDS011;43175;51.002;18.316;2024-02-26T07:24:50;12.30;;;5.60;;
57341;SDS011;43175;51.002;18.316;2024-02-26T07:27:17;13.60;;;5.80;;
57341;SDS011;43175;51.002;18.316;2024-02-26T07:29:43;13.60;;;5.90;;
57341;SDS011;43175;51.002;18.316;2024-02-26T07:32:09;13.70;;;6.70;;
57341;SDS011;43175;51.002;18.316;2024-02-26T07:34:35;15.30;;;6.90;;
57341;SDS011;43175;51.002;18.316;2024-02-26T07:37:02;15.10;;;7.10;;
57341;SDS011;43175;51.002;18.316;2024-02-26T07:39:28;15.90;;;7.30;;
57341;SDS011;43175;51.002;18.316;2024-02-26T07:41:53;16.20;;;7.20;;
57341;SDS011;43175;51.002;18.316;2024-02-26T07:44:19;15.30;;;7.10;;
57341;SDS011;43175;51.002;18.316;2024-02-26T07:46:45;14.20;;;6.90;;
57341;SDS011;43175;51.002;18.316;2024-02-26T07:49:10;16.20;;;7.80;;
57341;SDS011;43175;51.002;18.316;2024-02-26T07:51:35;15.50;;;7.90;;
57341;SDS011;43175;51.002;18.316;2024-02-26T07:54:01;17.60;;;9.70;;
57341;SDS011;43175;51.002;18.316;2024-02-26T07:56:27;19.40;;;10.00;;
57341;SDS011;43175;51.002;18.316;2024-02-26T07:58:52;22.70;;;11.60;;
57341;SDS011;43175;51.002;18.316;2024-02-26T08:01:17;26.90;;;12.50;;
57341;SDS011;43175;51.002;18.316;2024-02-26T08:03:43;23.90;;;10.80;;
57341;SDS011;43175;51.002;18.316;2024-02-26T08:06:08;26.60;;;11.00;;
57341;SDS011;43175;51.002;18.316;2024-02-26T08:08:34;23.60;;;11.00;;
57341;SDS011;43175;51.002;18.316;2024-02-26T08:10:59;19.70;;;9.60;;
57341;SDS011;43175;51.002;18.316;2024-02-26T08:13:25;14.90;;;7.10;;
57341;SDS011;43175;51.002;18.316;2024-02-26T08:15:51;14.60;;;6.80;;
57341;SDS011;43175;51.002;18.316;2024-02-26T08:18:17;15.70;;;6.60;;
57341;SDS011;43175;51.002;18.316;2024-02-26T08:20:42;13.70;;;6.10;;
57341;SDS011;43175;51.002;18.316;2024-02-26T08:23:08;12.90;;;5.40;;
57341;SDS011;43175;51.002;18.316;2024-02-26T08:25:33;13.40;;;5.30;;
57341;SDS011;43175;51.002;18.316;2024-02-26T08:27:59;12.20;;;5.20;;
57341;SDS011;43175;51.002;18.316;2024-02-26T08:30:24;11.40;;;5.00;;
57341;SDS011;43175;51.002;18.316;2024-02-26T08:32:50;12.70;;;4.90;;
57341;SDS011;43175;51.002;18.316;2024-02-26T08:35:16;13.20;;;5.10;;
57341;SDS011;43175;51.002;18.316;2024-02-26T08:37:43;12.90;;;5.10;;
57341;SDS011;43175;51.002;18.316;2024-02-26T08:40:09;13.70;;;5.00;;
57341;SDS011;43175;51.002;18.316;2024-02-26T08:42:35;16.70;;;5.70;;
57341;SDS011;43175;51.002;18.316;2024-02-26T08:45:01;14.50;;;5.40;;
57341;SDS011;43175;51.002;18.316;2024-02-26T08:47:27;12.80;;;5.40;;
57341;SDS011;43175;51.002;18.316;2024-02-26T08:49:53;13.10;;;5.60;;
57341;SDS011;43175;51.002;18.316;2024-02-26T08:52:20;11.80;;;5.20;;
57341;SDS011;43175;51.002;18.316;2024-02-26T08:54:47;13.10;;;5.70;;
57341;SDS011;43175;51.002;18.316;2024-02-26T08:57:12;11.00;;;5.00;;
57341;SDS011;43175;51.002;18.316;2024-02-26T08:59:38;11.30;;;4.50;;
57341;SDS011;43175;51.002;18.316;2024-02-26T09:02:03;11.90;;;5.10;;
57341;SDS011;43175;51.002;18.316;2024-02-26T09:04:29;12.20;;;4.70;;
57341;SDS011;43175;51.002;18.316;2024-02-26T09:06:54;13.00;;;4.90;;
57341;SDS011;43175;51.002;18.316;2024-02-26T09:09:20;11.10;;;4.40;;
57341;SDS011;43175;51.002;18.316;2024-02-26T09:11:47;12.20;;;4.70;;
57341;SDS011;43175;51.002;18.316;2024-02-26T09:14:12;13.20;;;4.80;;
57341;SDS011;43175;51.002;18.316;2024-02-26T09:16:38;14.90;;;4.70;;
57341;SDS011;43175;51.002;18.316;2024-02-26T09:19:04;10.90;;;4.40;;
57341;SDS011;43175;51.002;18.316;2024-02-26T09:21:29;10.80;;;4.40;;
57341;SDS011;43175;51.002;18.316;2024-02-26T09:23:55;10.90;;;4.40;;
57341;SDS011;43175;51.002;18.316;2024-02-26T09:26:21;11.30;;;3.90;;
57341;SDS011;43175;51.002;18.316;2024-02-26T09:28:46;10.20;;;4.00;;
57341;SDS011;43175;51.002;18.316;2024-02-26T09:31:12;10.30;;;4.00;;
57341;SDS011;43175;51.002;18.316;2024-02-26T09:33:37;12.80;;;4.60;;
57341;SDS011;43175;51.002;18.316;2024-02-26T09:36:04;12.40;;;4.60;;
57341;SDS011;43175;51.002;18.316;2024-02-26T09:38:29;11.40;;;4.20;;
57341;SDS011;43175;51.002;18.316;2024-02-26T09:40:57;11.00;;;3.90;;
57341;SDS011;43175;51.002;18.316;2024-02-26T09:43:24;11.40;;;4.50;;
57341;SDS011;43175;51.002;18.316;2024-02-26T09:45:54;10.60;;;4.00;;
57341;SDS011;43175;51.002;18.316;2024-02-26T09:48:20;10.40;;;3.60;;
57341;SDS011;43175;51.002;18.316;2024-02-26T09:50:46;11.00;;;3.60;;
57341;SDS011;43175;51.002;18.316;2024-02-26T09:53:12;9.70;;;3.50;;
57341;SDS011;43175;51.002;18.316;2024-02-26T09:55:39;10.70;;;3.80;;
57341;SDS011;43175;51.002;18.316;2024-02-26T09:58:05;10.40;;;3.70;;
57341;SDS011;43175;51.002;18.316;2024-02-26T10:00:30;10.90;;;4.00;;
57341;SDS011;43175;51.002;18.316;2024-02-26T10:03:00;9.70;;;3.40;;
57341;SDS011;43175;51.002;18.316;2024-02-26T10:05:29;10.70;;;3.90;;
57341;SDS011;43175;51.002;18.316;2024-02-26T10:07:55;10.00;;;3.80;;
57341;SDS011;43175;51.002;18.316;2024-02-26T10:10:23;10.60;;;3.50;;
57341;SDS011;43175;51.002;18.316;2024-02-26T10:12:49;13.70;;;4.10;;
57341;SDS011;43175;51.002;18.316;2024-02-26T10:15:14;12.00;;;4.00;;
57341;SDS011;43175;51.002;18.316;2024-02-26T10:17:40;10.30;;;3.80;;
57341;SDS011;43175;51.002;18.316;2024-02-26T10:20:16;11.40;;;4.20;;
57341;SDS011;43175;51.002;18.316;2024-02-26T10:22:47;9.70;;;3.80;;
57341;SDS011;43175;51.002;18.316;2024-02-26T10:25:13;10.20;;;3.70;;
57341;SDS011;43175;51.002;18.316;2024-02-26T10:27:42;11.80;;;4.00;;
57341;SDS011;43175;51.002;18.316;2024-02-26T10:30:18;10.80;;;4.20;;
57341;SDS011;43175;51.002;18.316;2024-02-26T10:32:44;11.20;;;4.00;;
57341;SDS011;43175;51.002;18.316;2024-02-26T10:35:11;10.90;;;4.10;;
57341;SDS011;43175;51.002;18.316;2024-02-26T10:37:37;10.40;;;4.00;;
57341;SDS011;43175;51.002;18.316;2024-02-26T10:40:02;11.10;;;3.90;;
57341;SDS011;43175;51.002;18.316;2024-02-26T10:42:30;10.60;;;3.80;;
57341;SDS011;43175;51.002;18.316;2024-02-26T10:44:55;10.60;;;3.70;;
57341;SDS011;43175;51.002;18.316;2024-02-26T10:47:23;10.20;;;3.70;;
57341;SDS011;43175;51.002;18.316;2024-02-26T10:49:49;10.80;;;3.20;;
57341;SDS011;43175;51.002;18.316;2024-02-26T10:52:16;10.20;;;3.20;;
57341;SDS011;43175;51.002;18.316;2024-02-26T10:54:44;12.40;;;3.30;;
57341;SDS011;43175;51.002;18.316;2024-02-26T10:57:13;9.70;;;2.90;;
57341;SDS011;43175;51.002;18.316;2024-02-26T10:59:39;9.80;;;2.80;;
57341;SDS011;43175;51.002;18.316;2024-02-26T11:02:06;9.50;;;3.10;;
57341;SDS011;43175;51.002;18.316;2024-02-26T11:04:32;8.80;;;2.90;;
57341;SDS011;43175;51.002;18.316;2024-02-26T11:06:58;8.80;;;3.10;;
57341;SDS011;43175;51.002;18.316;2024-02-26T11:09:24;9.70;;;2.90;;
57341;SDS011;43175;51.002;18.316;2024-02-26T11:11:50;10.90;;;3.30;;
57341;SDS011;43175;51.002;18.316;2024-02-26T11:14:20;9.50;;;3.10;;
57341;SDS011;43175;51.002;18.316;2024-02-26T11:16:46;9.60;;;3.30;;
57341;SDS011;43175;51.002;18.316;2024-02-26T11:19:12;11.00;;;3.30;;
57341;SDS011;43175;51.002;18.316;2024-02-26T11:21:39;11.40;;;3.30;;
57341;SDS011;43175;51.002;18.316;2024-02-26T11:24:11;9.90;;;3.60;;
57341;SDS011;43175;51.002;18.316;2024-02-26T11:26:40;11.90;;;4.00;;
57341;SDS011;43175;51.002;18.316;2024-02-26T11:29:10;9.90;;;3.60;;
57341;SDS011;43175;51.002;18.316;2024-02-26T11:31:37;12.00;;;3.50;;
57341;SDS011;43175;51.002;18.316;2024-02-26T11:34:03;9.90;;;3.50;;
57341;SDS011;43175;51.002;18.316;2024-02-26T11:36:29;10.80;;;3.50;;
57341;SDS011;43175;51.002;18.316;2024-02-26T11:38:55;14.20;;;6.90;;
57341;SDS011;43175;51.002;18.316;2024-02-26T11:41:20;12.70;;;5.10;;
57341;SDS011;43175;51.002;18.316;2024-02-26T11:43:50;11.30;;;4.30;;
57341;SDS011;43175;51.002;18.316;2024-02-26T11:51:51;11.70;;;4.70;;
57341;SDS011;43175;51.002;18.316;2024-02-26T11:57:01;12.80;;;5.10;;
57341;SDS011;43175;51.002;18.316;2024-02-26T11:59:39;14.70;;;6.40;;
57341;SDS011;43175;51.002;18.316;2024-02-26T12:02:07;10.10;;;3.80;;
57341;SDS011;43175;51.002;18.316;2024-02-26T12:04:32;13.20;;;5.60;;
57341;SDS011;43175;51.002;18.316;2024-02-26T12:07:00;12.10;;;4.60;;
57341;SDS011;43175;51.002;18.316;2024-02-26T12:09:38;12.00;;;4.20;;
57341;SDS011;43175;51.002;18.316;2024-02-26T12:12:05;13.00;;;4.70;;
57341;SDS011;43175;51.002;18.316;2024-02-26T12:14:37;12.20;;;4.60;;
57341;SDS011;43175;51.002;18.316;2024-02-26T12:17:02;10.30;;;3.90;;
57341;SDS011;43175;51.002;18.316;2024-02-26T12:19:31;13.10;;;4.70;;
57341;SDS011;43175;51.002;18.316;2024-02-26T12:21:56;14.70;;;8.20;;
57341;SDS011;43175;51.002;18.316;2024-02-26T12:24:22;11.00;;;4.60;;
57341;SDS011;43175;51.002;18.316;2024-02-26T12:26:47;8.00;;;2.70;;
57341;SDS011;43175;51.002;18.316;2024-02-26T12:29:14;8.20;;;2.50;;
57341;SDS011;43175;51.002;18.316;2024-02-26T12:31:39;9.10;;;2.80;;
57341;SDS011;43175;51.002;18.316;2024-02-26T12:34:06;10.20;;;3.10;;
57341;SDS011;43175;51.002;18.316;2024-02-26T12:36:32;8.90;;;2.70;;
57341;SDS011;43175;51.002;18.316;2024-02-26T12:38:59;9.10;;;3.00;;
57341;SDS011;43175;51.002;18.316;2024-02-26T12:41:25;10.40;;;3.10;;
57341;SDS011;43175;51.002;18.316;2024-02-26T12:43:52;9.00;;;2.90;;
57341;SDS011;43175;51.002;18.316;2024-02-26T12:46:18;9.60;;;3.00;;
57341;SDS011;43175;51.002;18.316;2024-02-26T12:48:43;8.50;;;2.80;;
57341;SDS011;43175;51.002;18.316;2024-02-26T12:51:12;10.90;;;3.00;;
57341;SDS011;43175;51.002;18.316;2024-02-26T12:53:38;9.20;;;2.80;;
57341;SDS011;43175;51.002;18.316;2024-02-26T12:56:04;9.40;;;3.00;;
57341;SDS011;43175;51.002;18.316;2024-02-26T12:58:30;10.00;;;3.00;;
57341;SDS011;43175;51.002;18.316;2024-02-26T13:00:55;10.00;;;2.90;;
57341;SDS011;43175;51.002;18.316;2024-02-26T13:03:22;10.50;;;2.90;;
57341;SDS011;43175;51.002;18.316;2024-02-26T13:05:48;11.80;;;3.00;;
57341;SDS011;43175;51.002;18.316;2024-02-26T13:08:17;10.80;;;4.80;;
57341;SDS011;43175;51.002;18.316;2024-02-26T13:10:43;12.80;;;5.90;;
57341;SDS011;43175;51.002;18.316;2024-02-26T13:13:09;10.60;;;3.40;;
57341;SDS011;43175;51.002;18.316;2024-02-26T13:15:34;10.00;;;3.80;;
57341;SDS011;43175;51.002;18.316;2024-02-26T13:18:00;9.60;;;3.50;;
57341;SDS011;43175;51.002;18.316;2024-02-26T13:20:34;9.80;;;3.20;;
57341;SDS011;43175;51.002;18.316;2024-02-26T13:23:03;9.10;;;3.30;;
57341;SDS011;43175;51.002;18.316;2024-02-26T13:25:30;10.40;;;3.90;;
57341;SDS011;43175;51.002;18.316;2024-02-26T13:28:15;9.80;;;3.80;;
57341;SDS011;43175;51.002;18.316;2024-02-26T13:30:54;11.00;;;4.50;;
57341;SDS011;43175;51.002;18.316;2024-02-26T13:33:22;11.20;;;4.70;;
57341;SDS011;43175;51.002;18.316;2024-02-26T13:35:48;10.10;;;3.80;;
57341;SDS011;43175;51.002;18.316;2024-02-26T13:38:13;11.10;;;4.20;;
57341;SDS011;43175;51.002;18.316;2024-02-26T13:40:39;10.60;;;4.50;;
57341;SDS011;43175;51.002;18.316;2024-02-26T13:43:05;10.50;;;4.10;;
57341;SDS011;43175;51.002;18.316;2024-02-26T13:45:30;12.80;;;4.80;;
57341;SDS011;43175;51.002;18.316;2024-02-26T13:48:01;11.00;;;4.40;;
57341;SDS011;43175;51.002;18.316;2024-02-26T13:50:28;12.50;;;4.30;;
57341;SDS011;43175;51.002;18.316;2024-02-26T13:52:54;11.60;;;3.80;;
57341;SDS011;43175;51.002;18.316;2024-02-26T13:55:21;12.40;;;3.70;;
57341;SDS011;43175;51.002;18.316;2024-02-26T13:57:47;9.40;;;3.20;;
57341;SDS011;43175;51.002;18.316;2024-02-26T14:00:13;8.40;;;2.80;;
57341;SDS011;43175;51.002;18.316;2024-02-26T14:02:39;8.60;;;3.00;;
57341;SDS011;43175;51.002;18.316;2024-02-26T14:05:04;8.70;;;3.00;;
57341;SDS011;43175;51.002;18.316;2024-02-26T14:07:30;11.50;;;3.00;;
57341;SDS011;43175;51.002;18.316;2024-02-26T14:09:57;9.10;;;3.00;;
57341;SDS011;43175;51.002;18.316;2024-02-26T14:12:23;8.90;;;3.10;;
57341;SDS011;43175;51.002;18.316;2024-02-26T14:14:49;8.60;;;3.10;;
57341;SDS011;43175;51.002;18.316;2024-02-26T14:17:14;9.70;;;3.20;;
57341;SDS011;43175;51.002;18.316;2024-02-26T14:19:41;10.60;;;3.70;;